»·PEaware :: FDX821 KPDX-KOAK

FDX821 :: KPDX-KOAK

FLIGHT INFORMATION

Flight Status: Arrived
Operator:
Federal Express
More flights by this operator :: More flights under this callsign
Pilot: Andre N. (13929)
Aircraft: BOEING 757-200
(B752)
More flights by this aircraft type
Origin: KPDX Portland Intl
United States
Destination: KOAK Metro Oakland Intl
United States
More flights between these airports :: More routes between these airports
Route: MINNE5 HISKU Q5 HUPTU SPAMY WNDSR2
File this flight plan on PilotEdge
Remarks:
Altitude:
(Current/Filed)
41,000ft
Speed:
(Current/Filed)
450kts
Departed: 22-Apr-18 01:01 PM
Arrived: 22-Apr-18 02:29 PM
Distance/Time
Traveled:
473nm/1:28
Distance/Time
To Go:
Arrived

Flight Plot

Page will automatically refresh every two minutes.

Flight plan parsing failed; only flown route is shown


Map Options




Map Legend


Flown Route
Filed Route
Departure Airport
Arrival Airport
Navaid (VOR, NDB)
Fix

Horizontal Profiles

Position Reports

Time Latitude Longitude Heading Altitude Ground
Speed
22-Apr-18 12:37 45.580154 -122.611280 219 41ft 0kts
22-Apr-18 12:39 45.580154 -122.611280 219 41ft 0kts
22-Apr-18 12:40 45.580154 -122.611280 219 41ft 0kts
22-Apr-18 12:41 45.580154 -122.611280 219 41ft 0kts
22-Apr-18 12:42 45.580154 -122.611280 219 41ft 0kts
22-Apr-18 12:43 45.580154 -122.611280 219 41ft 0kts
22-Apr-18 12:44 45.580154 -122.611280 219 41ft 0kts
22-Apr-18 12:45 45.580154 -122.611280 219 41ft 0kts
22-Apr-18 12:46 45.580262 -122.611152 219 41ft 2kts
22-Apr-18 12:47 45.580488 -122.610431 280 41ft 2kts
22-Apr-18 12:48 45.580322 -122.609997 314 41ft 0kts
22-Apr-18 12:49 45.580322 -122.609997 314 40ft 0kts
22-Apr-18 12:50 45.580323 -122.609997 314 40ft 0kts
22-Apr-18 12:51 45.580323 -122.609997 314 40ft 0kts
22-Apr-18 12:52 45.580807 -122.610688 314 41ft 7kts
22-Apr-18 12:53 45.582640 -122.613286 322 41ft 11kts
22-Apr-18 12:54 45.585277 -122.610557 44 41ft 14kts
22-Apr-18 12:55 45.586616 -122.607561 90 41ft 10kts
22-Apr-18 12:56 45.586505 -122.602643 105 40ft 16kts
22-Apr-18 12:57 45.584241 -122.596691 118 40ft 18kts
22-Apr-18 12:58 45.581687 -122.590146 118 41ft 19kts
22-Apr-18 12:59 45.579816 -122.585064 87 41ft 0kts
22-Apr-18 13:00 45.581880 -122.587393 298 41ft 72kts
22-Apr-18 13:01 45.602337 -122.637598 301 3125ft 181kts
22-Apr-18 13:02 45.625518 -122.692288 298 8435ft 193kts
22-Apr-18 13:03 45.652483 -122.758692 301 12456ft 230kts
22-Apr-18 13:04 45.668232 -122.860256 254 13695ft 343kts
22-Apr-18 13:05 45.593302 -122.945656 190 17214ft 385kts
22-Apr-18 13:06 45.484777 -122.941548 186 20554ft 402kts
22-Apr-18 13:07 45.372960 -122.951640 189 23579ft 415kts
22-Apr-18 13:08 45.256972 -122.964790 189 26278ft 429kts
22-Apr-18 13:09 45.136647 -122.965719 183 28717ft 446kts
22-Apr-18 13:10 45.012374 -122.961574 184 30886ft 459kts
22-Apr-18 13:11 44.888133 -122.957308 184 33338ft 459kts
22-Apr-18 13:12 44.773222 -122.953397 184 35865ft 454kts
22-Apr-18 13:13 44.649917 -122.949231 184 38052ft 453kts
22-Apr-18 13:14 44.525483 -122.945038 183 39836ft 454kts
22-Apr-18 13:15 44.403811 -122.941209 183 41245ft 454kts
22-Apr-18 13:16 44.278412 -122.937340 183 41319ft 453kts
22-Apr-18 13:17 44.154784 -122.933549 183 41319ft 453kts
22-Apr-18 13:18 44.029433 -122.929725 183 41318ft 453kts
22-Apr-18 13:19 43.904689 -122.925935 183 41318ft 453kts
22-Apr-18 13:20 43.790926 -122.922495 183 41319ft 453kts
22-Apr-18 13:21 43.666275 -122.918738 183 41319ft 453kts
22-Apr-18 13:22 43.542252 -122.915014 183 41264ft 453kts
22-Apr-18 13:23 43.417667 -122.911288 183 41265ft 453kts
22-Apr-18 13:24 43.292958 -122.907578 183 41264ft 453kts
22-Apr-18 13:25 43.167781 -122.903867 183 41264ft 453kts
22-Apr-18 13:26 43.042893 -122.900181 183 41264ft 453kts
22-Apr-18 13:27 42.917866 -122.896503 183 41264ft 453kts
22-Apr-18 13:28 42.805645 -122.893217 183 41265ft 453kts
22-Apr-18 13:29 42.681043 -122.889585 183 41184ft 453kts
22-Apr-18 13:30 42.556432 -122.885960 183 41184ft 453kts
22-Apr-18 13:31 42.431641 -122.882356 183 41185ft 453kts
22-Apr-18 13:32 42.307137 -122.878783 183 41184ft 453kts
22-Apr-18 13:33 42.181259 -122.875215 183 41186ft 463kts
22-Apr-18 13:34 42.053645 -122.871554 183 41184ft 464kts
22-Apr-18 13:35 41.926105 -122.867934 183 41157ft 463kts
22-Apr-18 13:36 41.816005 -122.864826 183 41157ft 463kts
22-Apr-18 13:37 41.690541 -122.861296 183 41157ft 463kts
22-Apr-18 13:38 41.562671 -122.857713 183 41157ft 463kts
22-Apr-18 13:39 41.437095 -122.854206 183 41157ft 462kts
22-Apr-18 13:40 41.313518 -122.850144 181 41077ft 463kts
22-Apr-18 13:41 41.187059 -122.842484 181 41076ft 463kts
22-Apr-18 13:42 41.061507 -122.834989 181 41076ft 463kts
22-Apr-18 13:43 40.937581 -122.827624 181 41077ft 462kts
22-Apr-18 13:44 40.835538 -122.821583 181 41076ft 462kts
22-Apr-18 13:45 40.712076 -122.814298 182 41076ft 462kts
22-Apr-18 13:46 40.584648 -122.806806 181 41076ft 461kts
22-Apr-18 13:47 40.457602 -122.799360 182 41071ft 461kts
22-Apr-18 13:48 40.330711 -122.791953 181 40997ft 461kts
22-Apr-18 13:49 40.203123 -122.784547 181 40653ft 464kts
22-Apr-18 13:50 40.075895 -122.777168 182 38590ft 463kts
22-Apr-18 13:51 39.947536 -122.769763 182 36525ft 466kts
22-Apr-18 13:52 39.830608 -122.763086 181 34653ft 465kts
22-Apr-18 13:53 39.701801 -122.755691 181 32652ft 469kts
22-Apr-18 13:54 39.571866 -122.748278 181 30683ft 474kts
22-Apr-18 13:55 39.445312 -122.715251 162 28714ft 471kts
22-Apr-18 13:56 39.327767 -122.655766 161 26841ft 441kts
22-Apr-18 13:57 39.217447 -122.599863 164 25052ft 420kts
22-Apr-18 13:58 39.105364 -122.577751 176 23280ft 404kts
22-Apr-18 13:59 38.996589 -122.557425 171 21513ft 396kts
22-Apr-18 14:00 38.892710 -122.531338 171 19776ft 387kts
22-Apr-18 14:01 38.805284 -122.509502 171 18272ft 379kts
22-Apr-18 14:02 38.703603 -122.484165 170 16771ft 370kts
22-Apr-18 14:03 38.603925 -122.466723 175 15279ft 352kts
22-Apr-18 14:04 38.510712 -122.452608 174 13888ft 328kts
22-Apr-18 14:05 38.423570 -122.439364 174 12584ft 309kts
22-Apr-18 14:06 38.339882 -122.426671 174 11300ft 302kts
22-Apr-18 14:07 38.257482 -122.414200 174 10079ft 297kts
22-Apr-18 14:08 38.177885 -122.402016 174 8896ft 284kts
22-Apr-18 14:09 38.103134 -122.390556 174 7863ft 271kts
22-Apr-18 14:10 38.030872 -122.379429 170 6981ft 253kts
22-Apr-18 14:11 37.977086 -122.336449 145 6984ft 259kts
22-Apr-18 14:12 37.921616 -122.283867 144 6427ft 252kts
22-Apr-18 14:13 37.870700 -122.235392 144 5858ft 236kts
22-Apr-18 14:14 37.819338 -122.186612 143 5272ft 233kts
22-Apr-18 14:15 37.771251 -122.130744 127 4985ft 240kts
22-Apr-18 14:16 37.738771 -122.074094 127 4985ft 240kts
22-Apr-18 14:17 37.700076 -122.006335 127 4985ft 239kts
22-Apr-18 14:18 37.662008 -121.942371 127 4984ft 222kts
22-Apr-18 14:19 37.621061 -121.885740 161 4620ft 222kts
22-Apr-18 14:20 37.566211 -121.928052 248 3965ft 199kts
22-Apr-18 14:21 37.573864 -121.994251 282 3227ft 189kts
22-Apr-18 14:22 37.592606 -122.051109 311 3014ft 169kts
22-Apr-18 14:23 37.621478 -122.094435 308 2430ft 149kts
22-Apr-18 14:24 37.640634 -122.122529 310 1763ft 115kts
22-Apr-18 14:25 37.661934 -122.153638 304 1275ft 121kts
22-Apr-18 14:26 37.683796 -122.187112 306 596ft 126kts
22-Apr-18 14:27 37.705331 -122.219686 308 34ft 113kts
22-Apr-18 14:28 37.714200 -122.231231 343 19ft 0kts
22-Apr-18 14:29 37.715112 -122.230776 102 19ft 9kts
22-Apr-18 14:30 37.712727 -122.226994 130 18ft 16kts
22-Apr-18 14:31 37.711970 -122.223438 40 19ft 17kts
22-Apr-18 14:32 37.715352 -122.219728 336 18ft 15kts
22-Apr-18 14:33 37.717895 -122.218733 314 19ft 4kts

Navigation Log

Ident Type
Flight plan parsing failed, navigation log unavailable